createdAt,value
2023-05-19T00:00:50.046Z,9.08
2023-05-19T00:03:31.972Z,9.07
2023-05-19T00:06:10.904Z,9.06
2023-05-19T00:08:47.633Z,9.05
2023-05-19T00:11:26.592Z,9.05
2023-05-19T00:14:05.892Z,9.05
2023-05-19T00:16:44.169Z,9.06
2023-05-19T00:19:20.640Z,9.05
2023-05-19T00:21:57.450Z,9.05
2023-05-19T00:24:36.016Z,9.05
2023-05-19T00:27:12.348Z,9.05
2023-05-19T00:29:48.650Z,9.05
2023-05-19T00:32:25.191Z,9.05
2023-05-19T00:35:02.514Z,9.05
2023-05-19T00:37:38.747Z,9.05
2023-05-19T00:40:16.561Z,9.05
2023-05-19T00:42:52.918Z,9.05
2023-05-19T00:45:30.847Z,9.05
2023-05-19T00:48:07.107Z,9.04
2023-05-19T00:50:44.291Z,9.03
2023-05-19T00:53:22.946Z,9.03
2023-05-19T00:56:03.049Z,9.03
2023-05-19T00:58:40.927Z,9.02
2023-05-19T01:01:17.616Z,9.02
2023-05-19T01:03:57.020Z,9.03
2023-05-19T01:06:33.725Z,9.04
2023-05-19T01:09:10.313Z,9.05
2023-05-19T01:11:46.766Z,9.06
2023-05-19T01:14:23.882Z,9.08
2023-05-19T01:17:10.950Z,9.08
2023-05-19T01:20:08.364Z,9.09
2023-05-19T01:23:36.773Z,9.09
2023-05-19T01:26:49.000Z,9.10
2023-05-19T01:29:59.943Z,9.12
2023-05-19T01:32:41.025Z,9.12
2023-05-19T01:35:20.355Z,9.14
2023-05-19T01:38:00.667Z,9.14
2023-05-19T01:40:38.877Z,9.14
2023-05-19T01:43:20.401Z,9.15
2023-05-19T01:45:59.091Z,9.16
2023-05-19T01:48:37.025Z,9.16
2023-05-19T01:51:13.585Z,9.17
2023-05-19T01:53:52.242Z,9.17
2023-05-19T01:56:43.082Z,9.18
2023-05-19T01:59:37.795Z,9.18
2023-05-19T02:02:27.695Z,9.18
2023-05-19T02:05:15.424Z,9.18
2023-05-19T02:08:03.783Z,9.17
2023-05-19T02:10:48.664Z,9.17
2023-05-19T02:13:31.142Z,9.17
2023-05-19T02:16:12.089Z,9.18
2023-05-19T02:18:49.110Z,9.17
2023-05-19T02:21:25.592Z,9.16
2023-05-19T02:24:02.050Z,9.14
2023-05-19T02:26:38.852Z,9.14
2023-05-19T02:29:15.701Z,9.14
2023-05-19T02:31:52.174Z,9.13
2023-05-19T02:34:28.514Z,9.11
2023-05-19T02:37:05.193Z,9.09
2023-05-19T02:39:41.790Z,9.08
2023-05-19T02:42:18.510Z,9.07
2023-05-19T02:44:55.333Z,9.07
2023-05-19T02:47:31.610Z,9.06
2023-05-19T02:50:13.720Z,9.06
2023-05-19T02:52:50.046Z,9.05
2023-05-19T02:55:26.901Z,9.05
2023-05-19T02:58:03.212Z,9.05
2023-05-19T03:00:39.871Z,9.06
2023-05-19T03:03:16.777Z,9.07
2023-05-19T03:05:53.789Z,9.09
2023-05-19T03:08:30.299Z,9.09
2023-05-19T03:11:07.189Z,9.11
2023-05-19T03:13:43.652Z,9.12
2023-05-19T03:16:20.365Z,9.22
2023-05-19T03:18:57.130Z,9.23
2023-05-19T03:21:34.675Z,9.22
2023-05-19T03:24:12.128Z,9.21
2023-05-19T03:26:49.018Z,9.22
2023-05-19T03:29:25.543Z,9.23
2023-05-19T03:32:03.179Z,9.24
2023-05-19T03:34:39.531Z,9.27
2023-05-19T03:37:16.377Z,9.29
2023-05-19T03:39:52.619Z,9.32
2023-05-19T03:42:29.554Z,9.34
2023-05-19T03:45:06.883Z,9.38
2023-05-19T03:47:43.477Z,9.41
2023-05-19T03:51:04.497Z,9.46
2023-05-19T03:53:41.293Z,9.49
2023-05-19T03:56:18.398Z,9.54
2023-05-19T03:58:55.521Z,9.57
2023-05-19T04:01:32.390Z,9.62
2023-05-19T04:04:09.350Z,9.65
2023-05-19T04:06:46.122Z,9.69
2023-05-19T04:09:24.106Z,9.72
2023-05-19T04:12:00.347Z,9.77
2023-05-19T04:14:36.625Z,9.80
2023-05-19T04:17:13.175Z,9.81
2023-05-19T04:19:49.564Z,9.83
2023-05-19T04:22:25.941Z,9.87
2023-05-19T04:25:04.255Z,9.89
2023-05-19T04:27:41.119Z,9.93
2023-05-19T04:30:30.271Z,9.99
2023-05-19T04:33:07.763Z,10.04
2023-05-19T04:35:44.637Z,10.07
2023-05-19T04:38:22.305Z,10.09
2023-05-19T04:41:02.056Z,10.10
2023-05-19T04:43:41.857Z,10.10
2023-05-19T04:46:18.555Z,10.14
2023-05-19T04:48:57.186Z,10.19
2023-05-19T04:51:33.860Z,10.21
2023-05-19T04:54:10.890Z,10.23
2023-05-19T04:56:47.276Z,10.28
2023-05-19T04:59:24.769Z,10.33
2023-05-19T05:02:01.741Z,10.37
2023-05-19T05:04:43.651Z,10.40
2023-05-19T05:07:20.104Z,10.44
2023-05-19T05:09:56.536Z,10.49
2023-05-19T05:12:35.703Z,10.54
2023-05-19T05:15:16.292Z,10.56
2023-05-19T05:17:55.392Z,10.57
2023-05-19T05:20:35.568Z,10.56
2023-05-19T05:23:14.625Z,10.57
2023-05-19T05:25:54.208Z,10.56
2023-05-19T05:28:31.564Z,10.57
2023-05-19T05:31:08.044Z,10.59
2023-05-19T05:33:44.978Z,10.63
2023-05-19T05:36:22.626Z,10.68
2023-05-19T05:38:59.562Z,10.76
2023-05-19T05:41:36.329Z,10.82
2023-05-19T05:44:17.664Z,10.86
2023-05-19T05:46:56.536Z,10.90
2023-05-19T05:49:36.706Z,10.92
2023-05-19T05:52:16.576Z,10.90
2023-05-19T05:54:57.219Z,10.92
2023-05-19T05:57:35.498Z,10.96
2023-05-19T06:00:16.575Z,10.99
2023-05-19T06:02:57.369Z,10.99
2023-05-19T06:05:35.258Z,10.97
2023-05-19T06:08:12.564Z,10.93
2023-05-19T06:10:49.341Z,10.87
2023-05-19T06:13:26.247Z,10.83
2023-05-19T06:16:03.496Z,10.83
2023-05-19T06:18:44.487Z,10.86
2023-05-19T06:21:21.957Z,10.87
2023-05-19T06:23:58.271Z,10.86
2023-05-19T06:26:35.734Z,10.84
2023-05-19T06:29:12.878Z,10.83
2023-05-19T06:31:49.653Z,10.83
2023-05-19T06:34:27.107Z,10.88
2023-05-19T06:37:03.955Z,10.96
2023-05-19T06:39:41.931Z,11.04
2023-05-19T06:42:22.156Z,11.09
2023-05-19T06:45:05.727Z,11.16
2023-05-19T06:47:42.713Z,11.24
2023-05-19T06:50:19.598Z,11.35
2023-05-19T06:52:57.399Z,11.45
2023-05-19T06:55:37.069Z,11.60
2023-05-19T06:58:17.924Z,11.74
2023-05-19T07:00:54.718Z,11.89
2023-05-19T07:03:31.468Z,11.96
2023-05-19T07:06:11.960Z,11.96
2023-05-19T07:08:48.575Z,11.96
2023-05-19T07:11:26.525Z,11.98
2023-05-19T07:14:03.751Z,12.02
2023-05-19T07:16:41.086Z,12.07
2023-05-19T07:19:19.869Z,12.12
2023-05-19T07:21:57.417Z,12.20
2023-05-19T07:24:34.662Z,12.26
2023-05-19T07:27:12.277Z,12.26
2023-05-19T07:29:48.772Z,12.21
2023-05-19T07:32:25.244Z,12.16
2023-05-19T07:35:01.631Z,12.08
2023-05-19T07:37:38.404Z,12.04
2023-05-19T07:40:16.291Z,12.00
2023-05-19T07:42:53.867Z,11.96
2023-05-19T07:45:30.126Z,11.94
2023-05-19T07:48:07.931Z,11.98
2023-05-19T07:50:44.543Z,11.99
2023-05-19T07:53:22.698Z,12.01
2023-05-19T07:55:59.068Z,12.06
2023-05-19T07:58:36.239Z,12.14
2023-05-19T08:01:12.636Z,12.23
2023-05-19T08:03:49.024Z,12.37
2023-05-19T08:06:26.253Z,12.49
2023-05-19T08:09:03.908Z,12.56
2023-05-19T08:11:40.641Z,12.64
2023-05-19T08:14:17.584Z,12.68
2023-05-19T08:16:54.426Z,12.69
2023-05-19T08:19:31.138Z,12.67
2023-05-19T08:22:07.915Z,12.64
2023-05-19T08:24:44.841Z,12.63
2023-05-19T08:27:21.607Z,12.61
2023-05-19T08:29:58.646Z,12.58
2023-05-19T08:32:35.222Z,12.58
2023-05-19T08:35:13.653Z,12.59
2023-05-19T08:37:50.634Z,12.59
2023-05-19T08:40:31.642Z,12.56
2023-05-19T08:43:08.708Z,12.54
2023-05-19T08:45:48.356Z,12.50
2023-05-19T08:48:25.516Z,12.48
2023-05-19T08:51:19.586Z,12.49
2023-05-19T08:54:06.437Z,12.58
2023-05-19T08:56:45.684Z,12.69
2023-05-19T08:59:23.959Z,12.81
2023-05-19T09:02:02.312Z,12.93
2023-05-19T09:04:46.583Z,13.03
2023-05-19T09:07:26.879Z,13.08
2023-05-19T09:10:04.237Z,13.09
2023-05-19T09:12:41.204Z,13.06
2023-05-19T09:15:21.098Z,13.03
2023-05-19T09:18:11.831Z,13.01
2023-05-19T09:20:49.654Z,12.99
2023-05-19T09:23:28.779Z,12.97
2023-05-19T09:26:08.429Z,12.95
2023-05-19T09:28:49.332Z,12.96
2023-05-19T09:31:26.049Z,12.97
2023-05-19T09:34:04.529Z,13.02
2023-05-19T09:36:44.379Z,13.08
2023-05-19T09:39:23.229Z,13.12
2023-05-19T09:42:00.775Z,13.15
2023-05-19T09:44:40.055Z,13.17
2023-05-19T09:47:18.034Z,13.16
2023-05-19T09:49:57.008Z,13.17
2023-05-19T09:52:37.104Z,13.17
2023-05-19T09:55:16.919Z,13.18
2023-05-19T09:57:56.261Z,13.25
2023-05-19T10:00:35.315Z,13.33
2023-05-19T10:03:13.732Z,13.39
2023-05-19T10:05:51.876Z,13.49
2023-05-19T10:08:30.711Z,13.56
2023-05-19T10:11:08.800Z,13.57
2023-05-19T10:13:46.823Z,13.62
2023-05-19T10:16:26.832Z,13.64
2023-05-19T10:19:05.920Z,13.65
2023-05-19T10:21:43.792Z,13.65
2023-05-19T10:24:21.475Z,13.66
2023-05-19T10:27:06.848Z,13.64
2023-05-19T10:29:50.341Z,13.67
2023-05-19T10:32:32.257Z,13.71
2023-05-19T10:35:55.856Z,13.76
2023-05-19T10:38:48.399Z,13.80
2023-05-19T10:41:40.762Z,13.82
2023-05-19T10:44:36.929Z,13.85
2023-05-19T10:47:14.287Z,13.85
2023-05-19T10:49:53.201Z,13.89
2023-05-19T10:52:33.069Z,13.93
2023-05-19T10:55:15.781Z,13.91
2023-05-19T10:58:01.292Z,13.88
2023-05-19T11:00:40.321Z,13.85
2023-05-19T11:03:24.919Z,13.86
2023-05-19T11:06:26.294Z,13.93
2023-05-19T11:09:14.045Z,13.95
2023-05-19T11:11:54.543Z,13.99
2023-05-19T11:14:33.926Z,14.03
2023-05-19T11:17:22.177Z,14.03
2023-05-19T11:20:02.419Z,14.05
2023-05-19T11:22:41.265Z,14.02
2023-05-19T11:25:41.401Z,14.01
2023-05-19T11:28:25.890Z,13.97
2023-05-19T11:31:04.177Z,13.93
2023-05-19T11:33:41.161Z,13.93
2023-05-19T11:36:18.814Z,13.96
2023-05-19T11:38:57.152Z,14.00
2023-05-19T11:41:33.705Z,13.99
2023-05-19T11:44:14.388Z,13.97
2023-05-19T11:46:51.617Z,13.97
2023-05-19T11:49:30.631Z,13.91
2023-05-19T11:52:08.389Z,13.88
2023-05-19T11:54:49.490Z,13.91
2023-05-19T11:57:26.246Z,13.95
2023-05-19T12:00:08.214Z,13.98
2023-05-19T12:02:45.152Z,14.03
2023-05-19T12:05:28.184Z,14.05
2023-05-19T12:08:06.447Z,14.12
2023-05-19T12:10:44.349Z,14.22
2023-05-19T12:13:22.847Z,14.31
2023-05-19T12:16:04.820Z,14.38
2023-05-19T12:18:44.492Z,14.43
2023-05-19T12:21:21.341Z,14.45
2023-05-19T12:23:58.436Z,14.43
2023-05-19T12:26:36.266Z,14.41
2023-05-19T12:29:15.800Z,14.36
2023-05-19T12:31:54.502Z,14.31
2023-05-19T12:34:31.538Z,14.24
2023-05-19T12:37:11.868Z,14.21
2023-05-19T12:39:49.606Z,14.16
2023-05-19T12:42:31.108Z,14.18
2023-05-19T12:45:09.699Z,14.23
2023-05-19T12:47:50.480Z,14.28
2023-05-19T12:50:35.283Z,14.34
2023-05-19T12:53:15.873Z,14.40
2023-05-19T12:55:55.158Z,14.38
2023-05-19T12:58:34.461Z,14.41
2023-05-19T13:01:18.862Z,14.43
2023-05-19T13:03:55.711Z,14.42
2023-05-19T13:06:33.969Z,14.40
2023-05-19T13:09:11.660Z,14.42
2023-05-19T13:11:51.339Z,14.45
2023-05-19T13:14:28.054Z,14.46
2023-05-19T13:17:04.684Z,14.42
2023-05-19T13:19:41.548Z,14.37
2023-05-19T13:22:18.025Z,14.29
2023-05-19T13:24:54.405Z,14.23
2023-05-19T13:27:31.140Z,14.19
2023-05-19T13:30:10.150Z,14.09
2023-05-19T13:32:47.250Z,14.01
2023-05-19T13:35:24.194Z,13.97
2023-05-19T13:38:00.794Z,13.91
2023-05-19T13:40:37.750Z,13.85
2023-05-19T13:43:14.420Z,13.81
2023-05-19T13:45:52.762Z,13.76
2023-05-19T13:48:29.297Z,13.74
2023-05-19T13:51:05.836Z,13.73
2023-05-19T13:53:42.585Z,13.72
2023-05-19T13:56:19.006Z,13.71
2023-05-19T13:58:57.130Z,13.72
2023-05-19T14:01:34.064Z,13.72
2023-05-19T14:04:11.951Z,13.71
2023-05-19T14:06:48.930Z,13.68
2023-05-19T14:09:26.306Z,13.66
2023-05-19T14:12:04.017Z,13.66
2023-05-19T14:14:40.604Z,13.64
2023-05-19T14:17:17.298Z,13.61
2023-05-19T14:19:53.677Z,13.57
2023-05-19T14:22:30.483Z,13.51
2023-05-19T14:25:07.926Z,13.42
2023-05-19T14:27:44.401Z,13.35
2023-05-19T14:30:21.081Z,13.28
2023-05-19T14:32:57.678Z,13.23
2023-05-19T14:35:34.722Z,13.19
2023-05-19T14:38:11.141Z,13.18
2023-05-19T14:40:48.857Z,13.19
2023-05-19T14:43:25.239Z,13.19
2023-05-19T14:46:02.275Z,13.18
2023-05-19T14:48:38.978Z,13.13
2023-05-19T14:51:15.639Z,13.08
2023-05-19T14:53:52.492Z,13.03
2023-05-19T14:56:29.034Z,12.99
2023-05-19T14:59:05.641Z,12.94
2023-05-19T15:01:42.422Z,12.90
2023-05-19T15:04:19.418Z,12.88
2023-05-19T15:07:09.653Z,12.86
2023-05-19T15:09:47.580Z,12.87
2023-05-19T15:12:24.114Z,12.89
2023-05-19T15:15:00.723Z,12.93
2023-05-19T15:17:37.185Z,12.98
2023-05-19T15:20:16.174Z,13.02
2023-05-19T15:23:04.306Z,13.04
2023-05-19T15:25:41.068Z,13.03
2023-05-19T15:28:17.934Z,13.01
2023-05-19T15:30:54.519Z,12.99
2023-05-19T15:33:31.054Z,12.97
2023-05-19T15:36:08.854Z,12.94
2023-05-19T15:38:45.557Z,12.90
2023-05-19T15:41:22.939Z,12.87
2023-05-19T15:44:00.556Z,12.85
2023-05-19T15:46:38.009Z,12.81
2023-05-19T15:49:14.549Z,12.79
2023-05-19T15:51:52.033Z,12.77
2023-05-19T15:54:28.489Z,12.75
2023-05-19T15:57:05.037Z,12.73
2023-05-19T15:59:41.653Z,12.70
2023-05-19T16:02:19.357Z,12.67
2023-05-19T16:04:57.878Z,12.64
2023-05-19T16:07:37.801Z,12.62
2023-05-19T16:10:15.928Z,12.60
2023-05-19T16:12:52.689Z,12.59
2023-05-19T16:15:29.145Z,12.59
2023-05-19T16:18:05.711Z,12.59
2023-05-19T16:20:43.007Z,12.57
2023-05-19T16:23:19.432Z,12.56
2023-05-19T16:25:57.713Z,12.55
2023-05-19T16:28:34.479Z,12.52
2023-05-19T16:31:11.178Z,12.51
2023-05-19T16:33:47.666Z,12.50
2023-05-19T16:36:23.925Z,12.48
2023-05-19T16:39:00.933Z,12.45
2023-05-19T16:41:37.636Z,12.41
2023-05-19T16:44:14.790Z,12.39
2023-05-19T16:46:51.280Z,12.37
2023-05-19T16:49:27.580Z,12.36
2023-05-19T16:52:04.027Z,12.34
2023-05-19T16:54:40.556Z,12.34
2023-05-19T16:57:17.249Z,12.33
2023-05-19T16:59:54.068Z,12.32
2023-05-19T17:02:30.881Z,12.31
2023-05-19T17:05:09.250Z,12.30
2023-05-19T17:07:45.629Z,12.30
2023-05-19T17:10:22.128Z,12.29
2023-05-19T17:12:58.413Z,12.29
2023-05-19T17:15:36.437Z,12.29
2023-05-19T17:18:12.968Z,12.29
2023-05-19T17:20:49.614Z,12.28
2023-05-19T17:23:26.247Z,12.27
2023-05-19T17:26:03.275Z,12.27
2023-05-19T17:28:39.629Z,12.27
2023-05-19T17:31:19.280Z,12.26
2023-05-19T17:33:55.629Z,12.26
2023-05-19T17:36:32.208Z,12.25
2023-05-19T17:39:08.753Z,12.24
2023-05-19T17:41:45.551Z,12.23
2023-05-19T17:44:21.977Z,12.21
2023-05-19T17:46:59.132Z,12.19
2023-05-19T17:49:36.893Z,12.18
2023-05-19T17:52:16.804Z,12.16
2023-05-19T17:54:54.709Z,12.15
2023-05-19T17:57:36.389Z,12.13
2023-05-19T18:00:18.693Z,12.11
2023-05-19T18:02:58.049Z,12.10
2023-05-19T18:05:37.925Z,12.08
2023-05-19T18:08:16.651Z,12.06
2023-05-19T18:10:56.867Z,12.03
2023-05-19T18:13:33.617Z,12.01
2023-05-19T18:16:11.025Z,12.00
2023-05-19T18:18:50.622Z,11.99
2023-05-19T18:21:27.538Z,11.98
2023-05-19T18:24:04.560Z,11.97
2023-05-19T18:26:42.284Z,11.95
2023-05-19T18:29:19.366Z,11.95
2023-05-19T18:31:55.783Z,11.92
2023-05-19T18:34:32.356Z,11.91
2023-05-19T18:37:09.358Z,11.89
2023-05-19T18:39:45.844Z,11.88
2023-05-19T18:42:22.385Z,11.86
2023-05-19T18:44:59.111Z,11.85
2023-05-19T18:47:36.029Z,11.84
2023-05-19T18:50:14.514Z,11.83
2023-05-19T18:52:51.204Z,11.81
2023-05-19T18:55:28.343Z,11.80
2023-05-19T18:58:05.203Z,11.78
2023-05-19T19:00:43.144Z,11.77
2023-05-19T19:03:20.308Z,11.76
2023-05-19T19:06:02.300Z,11.75
2023-05-19T19:08:39.214Z,11.74
2023-05-19T19:11:15.918Z,11.74
2023-05-19T19:13:55.579Z,11.74
2023-05-19T19:16:32.842Z,11.74
2023-05-19T19:19:10.148Z,11.74
2023-05-19T19:21:46.967Z,11.74
2023-05-19T19:24:23.387Z,11.75
2023-05-19T19:26:59.928Z,11.74
2023-05-19T19:29:36.740Z,11.73
2023-05-19T19:32:13.760Z,11.72
2023-05-19T19:34:52.713Z,11.71
2023-05-19T19:37:30.925Z,11.71
2023-05-19T19:40:10.076Z,11.70
2023-05-19T19:42:46.614Z,11.70
2023-05-19T19:45:23.345Z,11.70
2023-05-19T19:48:21.338Z,11.71
2023-05-19T19:51:01.302Z,11.71
2023-05-19T19:53:37.838Z,11.72
2023-05-19T19:56:14.185Z,11.73
2023-05-19T19:58:51.119Z,11.72
2023-05-19T20:01:34.447Z,11.74
2023-05-19T20:04:11.273Z,11.74
2023-05-19T20:06:47.814Z,11.74
2023-05-19T20:09:24.377Z,11.73
2023-05-19T20:12:00.990Z,11.72
2023-05-19T20:14:37.481Z,11.71
2023-05-19T20:17:13.972Z,11.70
2023-05-19T20:19:50.629Z,11.70
2023-05-19T20:22:27.237Z,11.68
2023-05-19T20:25:04.007Z,11.67
2023-05-19T20:27:40.624Z,11.67
2023-05-19T20:30:17.614Z,11.67
2023-05-19T20:32:54.164Z,11.66
2023-05-19T20:35:30.631Z,11.65
2023-05-19T20:38:07.252Z,11.64
2023-05-19T20:41:02.882Z,11.63
2023-05-19T20:43:43.035Z,11.61
2023-05-19T20:46:19.640Z,11.60
2023-05-19T20:48:56.348Z,11.60
2023-05-19T20:51:32.904Z,11.59
2023-05-19T20:54:09.729Z,11.58
2023-05-19T20:56:46.214Z,11.57
2023-05-19T20:59:22.921Z,11.56
2023-05-19T21:01:59.594Z,11.55
2023-05-19T21:04:37.634Z,11.55
2023-05-19T21:07:17.615Z,11.53
2023-05-19T21:09:54.531Z,11.52
2023-05-19T21:12:34.287Z,11.50
2023-05-19T21:15:14.251Z,11.49
2023-05-19T21:17:50.616Z,11.48
2023-05-19T21:20:29.235Z,11.48
2023-05-19T21:23:05.729Z,11.45
2023-05-19T21:25:44.004Z,11.44
2023-05-19T21:28:22.326Z,11.44
2023-05-19T21:30:59.155Z,11.43
2023-05-19T21:33:35.611Z,11.43
2023-05-19T21:36:12.921Z,11.43
2023-05-19T21:38:49.595Z,11.43
2023-05-19T21:41:26.087Z,11.43
2023-05-19T21:44:03.599Z,11.43
2023-05-19T21:46:40.078Z,11.43
2023-05-19T21:49:16.595Z,11.42
2023-05-19T21:51:53.005Z,11.42
2023-05-19T21:54:29.632Z,11.41
2023-05-19T21:57:06.810Z,11.40
2023-05-19T21:59:44.204Z,11.39
2023-05-19T22:02:20.638Z,11.39
2023-05-19T22:04:57.415Z,11.38
2023-05-19T22:07:33.943Z,11.37
2023-05-19T22:10:11.966Z,11.36
2023-05-19T22:12:48.478Z,11.36
2023-05-19T22:15:25.414Z,11.35
2023-05-19T22:18:01.767Z,11.35
2023-05-19T22:20:38.206Z,11.34
2023-05-19T22:23:15.007Z,11.34
2023-05-19T22:25:51.510Z,11.35
2023-05-19T22:28:28.398Z,11.36
2023-05-19T22:31:04.964Z,11.37
2023-05-19T22:33:41.430Z,11.38
2023-05-19T22:36:18.804Z,11.37
2023-05-19T22:38:55.215Z,11.36
2023-05-19T22:41:38.422Z,11.35
2023-05-19T22:44:16.408Z,11.33
2023-05-19T22:46:53.584Z,11.32
2023-05-19T22:49:30.234Z,11.30
2023-05-19T22:52:07.350Z,11.28
2023-05-19T22:54:43.722Z,11.26
2023-05-19T22:57:21.043Z,11.25
2023-05-19T23:00:06.742Z,11.24
2023-05-19T23:02:43.152Z,11.23
2023-05-19T23:05:23.210Z,11.22
2023-05-19T23:08:05.576Z,11.22
2023-05-19T23:10:42.622Z,11.21
2023-05-19T23:13:19.376Z,11.21
2023-05-19T23:16:01.533Z,11.22
2023-05-19T23:18:37.850Z,11.22
2023-05-19T23:21:16.612Z,11.23
2023-05-19T23:23:56.909Z,11.24
2023-05-19T23:26:33.361Z,11.24
2023-05-19T23:29:11.679Z,11.26
2023-05-19T23:31:50.753Z,11.26
2023-05-19T23:34:29.204Z,11.27
2023-05-19T23:37:05.525Z,11.28
2023-05-19T23:39:41.982Z,11.29
2023-05-19T23:42:19.595Z,11.29
2023-05-19T23:45:03.253Z,11.29
2023-05-19T23:47:46.075Z,11.29
2023-05-19T23:50:22.867Z,11.29
2023-05-19T23:53:03.834Z,11.30
2023-05-19T23:55:41.534Z,11.30
2023-05-19T23:58:17.998Z,11.30
